Buenos Aires, Argentina

10:21 AM ART en Julio 31, 2015 (GMT -0300)
Chacarita | | Change Station
CLOSE
Current Station
Estación meteorológica personal
Location: Buenos Aires, AUTONOMOUS CITY OF BUENOS AIRES
Altura: 82 ft
Estaciones meteorológicas cercanas

Alt 82 ft 34.58 °S, 58.45 °W | Updated 7 seconds ago

Rain
Lluvia
61.7 ° F
Sensación térmica 61.7 ° F
N
1.0
Viento Variable Viento desde NO

Hoy
Alta -- | Baja -- ° F
--% Posibilidad de precipitaciones
Ayer
Alta -- | Baja -- ° F
Precip. -- pul
7:48 AM 6:12 PM
Luna llena, 100% visible
Presión 29.77 pul
Visibilidad 2.8 Millas
Nubes Baja 1000 ft
Nubes dispersas 2500 ft
Nublado 4000 ft
Punto de rocío 54 ° F
Humedad 77%
Precipitaciones 0.97 pul
Espesor de la nieve No disponible.
UV 1 de una escala de 12
Polen No disponible.
Calidad del aire No disponible.
Flu Activity No disponible.
METAR SABE 311300Z 25013G23KT 4500 RA FEW010 SCT025 OVC040 16/15 Q1008

More Conditions Fewer Conditions

Presión 29.77 pul
Visibilidad 2.8 Millas
Nubes Baja 1000 ft
Nubes dispersas 2500 ft
Nublado 4000 ft
Punto de rocío 54 ° F
Humedad 77%
Precipitaciones 0.97 pul
Espesor de la nieve No disponible.
UV 1 de una escala de 12
Polen No disponible.
Calidad del aire No disponible.
Flu Activity No disponible.
METAR SABE 311300Z 25013G23KT 4500 RA FEW010 SCT025 OVC040 16/15 Q1008

More Conditions Fewer Conditions

10-Day Weather Forecast

×

Almanac

Astronomía

Jul. 31, 2015 Salida Puesta
Hora real
Crepúsculo civil
Crepúsculo náutico
Crepúsculo astronómico
Luna
Horas de luz
Horas de luz
Tomorrow will be .
, % of the Moon is Illuminated

Extremos de hoy

Máximos del país Bajas del país

Community

WunderPhotos

Upload Photos

1,842,653 ¡fotos cargadas!

WunderBlogs® & News

Nearby

Calidad del aire

  Calidad del aire Índice AQ Contaminante
Not available.

Grosos de nieve

Estación Profundido Altura

Actividad de terremotos

Ciudad Distance Mag. Tiempo y dato
Magnitud mínima muestra es 2,5.

Temperaturas de aguas costeras

Lugar Temperatura

Stations

Estaciones meteorológicas cercanas

Ubicación de la estación Temp. Vientos helados Punto de rocío Humedad Viento Precip. Alt Actualizado Tipo